createdAt,value
2023-04-16T00:02:19.390Z,13.43
2023-04-16T00:04:52.883Z,11.50
2023-04-16T00:07:27.267Z,11.43
2023-04-16T00:10:00.889Z,12.93
2023-04-16T00:12:35.081Z,12.40
2023-04-16T00:15:11.269Z,13.20
2023-04-16T00:17:45.282Z,15.33
2023-04-16T00:20:20.373Z,15.13
2023-04-16T00:22:54.173Z,12.97
2023-04-16T00:25:27.397Z,16.33
2023-04-16T00:28:01.801Z,15.67
2023-04-16T00:30:35.866Z,17.70
2023-04-16T00:33:10.031Z,15.57
2023-04-16T00:35:43.646Z,13.43
2023-04-16T00:38:18.039Z,15.07
2023-04-16T00:40:52.123Z,16.17
2023-04-16T00:43:26.754Z,17.37
2023-04-16T00:46:01.332Z,14.80
2023-04-16T00:48:35.348Z,25.93
2023-04-16T00:51:11.160Z,14.53
2023-04-16T00:53:45.949Z,16.13
2023-04-16T00:56:20.719Z,15.10
2023-04-16T00:58:56.309Z,16.30
2023-04-16T01:01:29.884Z,18.37
2023-04-16T01:04:03.724Z,16.47
2023-04-16T01:06:38.078Z,15.20
2023-04-16T01:09:13.378Z,17.27
2023-04-16T01:11:47.790Z,19.40
2023-04-16T01:14:21.780Z,16.37
2023-04-16T01:16:56.378Z,18.50
2023-04-16T01:19:31.406Z,14.73
2023-04-16T01:22:05.211Z,15.50
2023-04-16T01:24:42.109Z,15.70
2023-04-16T01:27:17.737Z,17.43
2023-04-16T01:29:52.156Z,20.50
2023-04-16T01:32:33.123Z,17.67
2023-04-16T01:35:08.145Z,16.17
2023-04-16T01:37:41.961Z,16.17
2023-04-16T01:40:17.616Z,15.33
2023-04-16T01:42:51.955Z,22.37
2023-04-16T01:45:25.155Z,15.17
2023-04-16T01:47:59.879Z,15.67
2023-04-16T01:50:34.474Z,13.73
2023-04-16T01:53:09.922Z,14.23
2023-04-16T01:55:43.818Z,14.70
2023-04-16T01:58:17.522Z,15.10
2023-04-16T02:00:51.765Z,14.17
2023-04-16T02:03:25.785Z,16.03
2023-04-16T02:06:01.427Z,13.07
2023-04-16T02:08:35.398Z,12.53
2023-04-16T02:11:09.185Z,16.37
2023-04-16T02:13:43.006Z,14.70
2023-04-16T02:16:17.262Z,12.53
2023-04-16T02:18:56.765Z,14.87
2023-04-16T02:21:31.995Z,14.43
2023-04-16T02:24:06.205Z,15.37
2023-04-16T02:26:40.421Z,14.03
2023-04-16T02:29:17.719Z,16.40
2023-04-16T02:31:56.872Z,15.83
2023-04-16T02:34:31.330Z,15.30
2023-04-16T02:37:05.467Z,14.13
2023-04-16T02:39:38.666Z,15.87
2023-04-16T02:42:12.711Z,15.57
2023-04-16T02:44:46.677Z,13.57
2023-04-16T02:47:20.559Z,13.40
2023-04-16T02:49:54.552Z,14.23
2023-04-16T02:52:28.908Z,13.43
2023-04-16T02:55:03.244Z,17.57
2023-04-16T02:57:38.576Z,18.83
2023-04-16T03:00:16.537Z,16.90
2023-04-16T03:02:50.304Z,15.77
2023-04-16T03:05:24.469Z,16.40
2023-04-16T03:07:58.366Z,15.40
2023-04-16T03:10:32.094Z,18.23
2023-04-16T03:13:07.344Z,16.13
2023-04-16T03:15:41.586Z,15.90
2023-04-16T03:18:15.763Z,13.87
2023-04-16T03:20:52.774Z,14.53
2023-04-16T03:23:26.854Z,15.00
2023-04-16T03:26:00.661Z,15.70
2023-04-16T03:28:34.864Z,14.43
2023-04-16T03:31:08.825Z,15.33
2023-04-16T03:33:44.365Z,16.30
2023-04-16T03:36:18.357Z,17.67
2023-04-16T03:38:52.749Z,20.70
2023-04-16T03:41:27.434Z,16.20
2023-04-16T03:44:01.174Z,15.90
2023-04-16T03:46:35.646Z,19.53
2023-04-16T03:49:10.008Z,17.30
2023-04-16T03:51:45.049Z,13.77
2023-04-16T03:54:22.832Z,17.17
2023-04-16T03:57:02.712Z,17.27
2023-04-16T03:59:37.516Z,15.03
2023-04-16T04:02:12.540Z,16.90
2023-04-16T04:04:47.161Z,14.67
2023-04-16T04:07:21.398Z,17.97
2023-04-16T04:09:55.265Z,17.17
2023-04-16T04:12:29.214Z,17.07
2023-04-16T04:15:03.130Z,17.20
2023-04-16T04:17:37.631Z,15.27
2023-04-16T04:20:13.916Z,18.40
2023-04-16T04:22:50.157Z,15.70
2023-04-16T04:25:23.043Z,15.27
2023-04-16T04:27:57.356Z,19.93
2023-04-16T04:30:31.402Z,19.97
2023-04-16T04:33:05.434Z,18.20
2023-04-16T04:35:40.276Z,20.33
2023-04-16T04:38:16.235Z,19.03
2023-04-16T04:40:50.063Z,18.87
2023-04-16T04:43:24.351Z,20.17
2023-04-16T04:45:57.936Z,15.47
2023-04-16T04:48:34.238Z,18.50
2023-04-16T04:51:09.504Z,17.37
2023-04-16T04:53:43.383Z,19.30
2023-04-16T04:56:17.002Z,20.30
2023-04-16T04:58:51.100Z,19.10
2023-04-16T05:01:26.067Z,18.97
2023-04-16T05:04:00.088Z,18.43
2023-04-16T05:06:34.104Z,16.83
2023-04-16T05:09:11.997Z,22.97
2023-04-16T05:11:46.211Z,17.87
2023-04-16T05:14:20.377Z,17.13
2023-04-16T05:16:54.220Z,16.70
2023-04-16T05:19:28.037Z,17.67
2023-04-16T05:22:02.820Z,19.67
2023-04-16T05:24:36.882Z,19.23
2023-04-16T05:27:10.421Z,18.93
2023-04-16T05:29:44.224Z,15.90
2023-04-16T05:32:18.698Z,18.90
2023-04-16T05:34:52.014Z,18.23
2023-04-16T05:37:25.437Z,19.37
2023-04-16T05:39:59.216Z,19.07
2023-04-16T05:42:32.690Z,17.47
2023-04-16T05:45:09.717Z,16.13
2023-04-16T05:47:42.989Z,19.30
2023-04-16T05:50:17.534Z,16.40
2023-04-16T05:52:50.952Z,15.43
2023-04-16T05:55:24.180Z,15.87
2023-04-16T05:57:57.472Z,17.17
2023-04-16T06:00:31.769Z,15.73
2023-04-16T06:03:06.094Z,16.37
2023-04-16T06:05:40.391Z,15.30
2023-04-16T06:08:14.866Z,15.50
2023-04-16T06:10:49.432Z,18.03
2023-04-16T06:13:23.098Z,17.27
2023-04-16T06:15:57.211Z,18.13
2023-04-16T06:18:31.268Z,18.60
2023-04-16T06:21:05.871Z,15.47
2023-04-16T06:23:39.220Z,15.10
2023-04-16T06:26:12.837Z,16.33
2023-04-16T06:28:46.496Z,18.03
2023-04-16T06:31:21.102Z,18.47
2023-04-16T06:33:55.276Z,18.20
2023-04-16T06:36:29.349Z,15.17
2023-04-16T06:39:03.493Z,19.03
2023-04-16T06:41:37.508Z,20.50
2023-04-16T06:44:11.311Z,17.90
2023-04-16T06:46:45.762Z,17.67
2023-04-16T06:49:19.416Z,15.23
2023-04-16T06:51:53.815Z,17.47
2023-04-16T06:54:27.552Z,14.10
2023-04-16T06:57:01.855Z,17.90
2023-04-16T06:59:35.779Z,16.33
2023-04-16T07:02:10.771Z,19.40
2023-04-16T07:04:44.618Z,15.97
2023-04-16T07:07:19.040Z,15.47
2023-04-16T07:09:54.105Z,17.03
2023-04-16T07:12:27.667Z,18.97
2023-04-16T07:15:01.470Z,14.73
2023-04-16T07:17:36.567Z,15.97
2023-04-16T07:20:12.684Z,15.63
2023-04-16T07:22:46.159Z,18.93
2023-04-16T07:25:19.597Z,18.43
2023-04-16T07:27:53.564Z,19.77
2023-04-16T07:30:32.821Z,19.43
2023-04-16T07:33:06.867Z,19.47
2023-04-16T07:35:40.162Z,17.17
2023-04-16T07:38:13.281Z,17.00
2023-04-16T07:40:46.480Z,16.00
2023-04-16T07:43:19.870Z,16.73
2023-04-16T07:45:54.017Z,20.40
2023-04-16T07:48:28.731Z,16.63
2023-04-16T07:51:02.679Z,15.33
2023-04-16T07:53:36.739Z,15.53
2023-04-16T07:56:11.860Z,14.23
2023-04-16T07:58:45.419Z,17.00
2023-04-16T08:01:18.964Z,19.57
2023-04-16T08:03:52.738Z,16.07
2023-04-16T08:06:27.637Z,19.20
2023-04-16T08:09:01.616Z,18.47
2023-04-16T08:11:35.619Z,13.90
2023-04-16T08:14:09.829Z,14.87
2023-04-16T08:16:44.102Z,17.00
2023-04-16T08:19:18.258Z,16.20
2023-04-16T08:21:52.525Z,16.53
2023-04-16T08:24:26.934Z,14.27
2023-04-16T08:27:15.100Z,14.47
2023-04-16T08:29:52.193Z,17.12
2023-04-16T08:32:26.262Z,18.77
2023-04-16T08:35:01.074Z,15.03
2023-04-16T08:37:36.190Z,14.65
2023-04-16T08:40:13.072Z,13.87
2023-04-16T08:42:55.872Z,17.20
2023-04-16T08:45:30.624Z,15.93
2023-04-16T08:48:06.751Z,15.83
2023-04-16T08:50:42.840Z,16.10
2023-04-16T08:53:24.293Z,15.20
2023-04-16T08:56:01.569Z,15.33
2023-04-16T08:58:36.834Z,13.77
2023-04-16T09:01:12.661Z,14.00
2023-04-16T09:03:48.535Z,13.70
2023-04-16T09:06:23.342Z,15.93
2023-04-16T09:08:59.173Z,17.13
2023-04-16T09:11:32.564Z,14.83
2023-04-16T09:14:11.026Z,13.00
2023-04-16T09:16:46.350Z,16.97
2023-04-16T09:19:22.578Z,15.07
2023-04-16T09:21:56.559Z,13.83
2023-04-16T09:24:30.679Z,16.57
2023-04-16T09:27:04.886Z,13.43
2023-04-16T09:29:40.002Z,14.60
2023-04-16T09:32:15.011Z,15.93
2023-04-16T09:35:02.817Z,13.47
2023-04-16T09:37:37.061Z,14.27
2023-04-16T09:40:14.177Z,12.07
2023-04-16T09:42:48.484Z,13.57
2023-04-16T09:45:22.140Z,15.63
2023-04-16T09:48:04.252Z,16.40
2023-04-16T09:50:38.779Z,13.03
2023-04-16T09:53:12.715Z,18.43
2023-04-16T09:55:46.849Z,14.63
2023-04-16T09:58:22.037Z,13.15
2023-04-16T10:01:02.323Z,14.90
2023-04-16T10:03:37.265Z,16.27
2023-04-16T10:06:18.538Z,13.23
2023-04-16T10:08:53.827Z,15.95
2023-04-16T10:11:27.266Z,15.57
2023-04-16T10:14:00.638Z,13.23
2023-04-16T10:16:36.303Z,15.90
2023-04-16T10:19:11.412Z,16.90
2023-04-16T10:21:46.548Z,19.50
2023-04-16T10:24:21.375Z,15.47
2023-04-16T10:26:56.294Z,15.50
2023-04-16T10:29:31.385Z,15.20
2023-04-16T10:32:08.029Z,14.07
2023-04-16T10:34:42.742Z,13.33
2023-04-16T10:37:19.539Z,14.30
2023-04-16T10:39:55.897Z,16.10
2023-04-16T10:42:30.101Z,13.47
2023-04-16T10:45:04.454Z,15.13
2023-04-16T10:47:43.810Z,14.53
2023-04-16T10:50:20.743Z,14.13
2023-04-16T10:53:21.139Z,14.53
2023-04-16T10:56:16.799Z,16.20
2023-04-16T10:58:51.215Z,12.90
2023-04-16T11:01:33.070Z,16.33
2023-04-16T11:07:09.028Z,15.07
2023-04-16T11:10:00.747Z,12.03
2023-04-16T11:12:38.141Z,12.65
2023-04-16T11:15:15.093Z,12.83
2023-04-16T11:17:50.676Z,13.70
2023-04-16T11:20:26.337Z,15.97
2023-04-16T11:23:01.074Z,11.17
2023-04-16T11:25:34.877Z,10.83
2023-04-16T11:28:08.396Z,16.97
2023-04-16T11:30:43.893Z,12.47
2023-04-16T11:33:18.256Z,13.40
2023-04-16T11:36:00.460Z,11.73
2023-04-16T11:38:43.096Z,10.60
2023-04-16T11:41:23.168Z,12.83
2023-04-16T11:43:57.056Z,10.63
2023-04-16T11:46:42.827Z,11.20
2023-04-16T11:49:17.576Z,11.93
2023-04-16T11:51:51.548Z,9.23
2023-04-16T11:54:26.472Z,13.63
2023-04-16T11:57:00.200Z,10.07
2023-04-16T11:59:34.602Z,12.43
2023-04-16T12:02:08.653Z,9.07
2023-04-16T12:04:43.635Z,12.20
2023-04-16T12:07:18.520Z,13.27
2023-04-16T12:09:52.072Z,8.97
2023-04-16T12:12:33.978Z,10.87
2023-04-16T12:15:09.401Z,10.32
2023-04-16T12:17:43.741Z,11.70
2023-04-16T12:20:18.774Z,9.80
2023-04-16T12:22:54.047Z,12.27
2023-04-16T12:25:28.140Z,9.97
2023-04-16T12:28:01.898Z,8.73
2023-04-16T12:30:36.096Z,10.70
2023-04-16T12:33:21.339Z,11.90
2023-04-16T12:35:55.117Z,10.23
2023-04-16T12:38:29.527Z,12.07
2023-04-16T12:41:02.700Z,9.97
2023-04-16T12:43:38.054Z,10.65
2023-04-16T12:46:12.219Z,13.53
2023-04-16T12:48:46.391Z,14.00
2023-04-16T12:51:20.203Z,10.60
2023-04-16T12:53:54.239Z,11.77
2023-04-16T12:56:28.202Z,11.60
2023-04-16T12:59:02.211Z,10.40
2023-04-16T13:01:37.560Z,13.73
2023-04-16T13:04:12.062Z,10.73
2023-04-16T13:06:46.287Z,11.37
2023-04-16T13:09:20.721Z,10.33
2023-04-16T13:11:54.563Z,10.77
2023-04-16T13:14:28.727Z,13.37
2023-04-16T13:17:02.615Z,14.30
2023-04-16T13:19:36.754Z,12.67
2023-04-16T13:22:11.191Z,10.23
2023-04-16T13:24:44.727Z,13.30
2023-04-16T13:27:18.982Z,12.03
2023-04-16T13:29:53.480Z,11.17
2023-04-16T13:32:27.854Z,11.17
2023-04-16T13:35:02.670Z,11.30
2023-04-16T13:37:36.657Z,12.17
2023-04-16T13:40:13.204Z,11.77
2023-04-16T13:42:47.017Z,18.83
2023-04-16T13:45:21.732Z,11.90
2023-04-16T13:47:56.322Z,10.27
2023-04-16T13:50:31.250Z,10.83
2023-04-16T13:53:05.224Z,8.80
2023-04-16T13:55:39.261Z,7.07
2023-04-16T13:58:13.495Z,6.57
2023-04-16T14:00:47.660Z,6.50
2023-04-16T14:03:22.131Z,7.53
2023-04-16T14:05:56.692Z,7.30
2023-04-16T14:08:30.291Z,8.17
2023-04-16T14:11:06.562Z,6.77
2023-04-16T14:13:42.064Z,8.43
2023-04-16T14:16:15.839Z,7.97
2023-04-16T14:18:49.865Z,8.77
2023-04-16T14:21:23.507Z,9.30
2023-04-16T14:23:57.625Z,7.93
2023-04-16T14:26:31.111Z,9.33
2023-04-16T14:29:05.035Z,8.80
2023-04-16T14:31:39.366Z,7.73
2023-04-16T14:34:12.890Z,8.80
2023-04-16T14:36:47.263Z,8.67
2023-04-16T14:39:22.354Z,10.23
2023-04-16T14:41:55.691Z,8.97
2023-04-16T14:44:29.203Z,8.50
2023-04-16T14:47:03.328Z,9.20
2023-04-16T14:49:37.111Z,10.80
2023-04-16T14:52:10.917Z,9.63
2023-04-16T14:54:44.945Z,12.30
2023-04-16T14:57:19.022Z,8.87
2023-04-16T14:59:53.618Z,9.33
2023-04-16T15:02:28.148Z,9.77
2023-04-16T15:05:03.180Z,10.63
2023-04-16T15:07:37.633Z,12.13
2023-04-16T15:10:12.835Z,11.17
2023-04-16T15:12:46.262Z,9.97
2023-04-16T15:15:20.776Z,10.23
2023-04-16T15:17:54.305Z,9.43
2023-04-16T15:20:28.550Z,9.50
2023-04-16T15:23:02.297Z,11.60
2023-04-16T15:25:36.933Z,8.23
2023-04-16T15:28:10.940Z,7.97
2023-04-16T15:30:45.625Z,8.40
2023-04-16T15:33:19.359Z,7.60
2023-04-16T15:35:53.602Z,8.17
2023-04-16T15:38:26.920Z,7.47
2023-04-16T15:41:01.466Z,7.25
2023-04-16T15:43:35.112Z,6.60
2023-04-16T15:46:09.153Z,8.90
2023-04-16T15:48:43.418Z,7.13
2023-04-16T15:51:17.225Z,6.83
2023-04-16T15:53:51.521Z,7.00
2023-04-16T15:56:24.871Z,6.20
2023-04-16T15:58:58.505Z,6.23
2023-04-16T16:01:31.954Z,6.40
2023-04-16T16:04:13.478Z,4.80
2023-04-16T16:06:47.086Z,6.20
2023-04-16T16:09:25.966Z,5.40
2023-04-16T16:11:59.928Z,7.73
2023-04-16T16:14:34.618Z,7.13
2023-04-16T16:17:08.785Z,7.00
2023-04-16T16:19:43.064Z,6.73
2023-04-16T16:22:20.720Z,6.97
2023-04-16T16:24:57.759Z,6.00
2023-04-16T16:27:31.407Z,6.53
2023-04-16T16:30:07.627Z,6.03
2023-04-16T16:32:43.329Z,6.70
2023-04-16T16:35:17.501Z,7.60
2023-04-16T16:37:56.018Z,8.07
2023-04-16T16:40:31.046Z,7.63
2023-04-16T16:43:05.701Z,7.23
2023-04-16T16:45:39.745Z,8.23
2023-04-16T16:48:14.171Z,7.70
2023-04-16T16:50:47.573Z,8.67
2023-04-16T16:53:21.908Z,8.43
2023-04-16T16:55:55.524Z,8.60
2023-04-16T16:58:29.310Z,9.03
2023-04-16T17:01:02.749Z,9.10
2023-04-16T17:03:37.488Z,11.10
2023-04-16T17:06:11.574Z,11.73
2023-04-16T17:08:47.765Z,9.80
2023-04-16T17:11:20.739Z,12.57
2023-04-16T17:13:54.607Z,10.63
2023-04-16T17:16:28.490Z,11.53
2023-04-16T17:19:02.826Z,12.27
2023-04-16T17:21:36.642Z,13.47
2023-04-16T17:24:11.754Z,15.70
2023-04-16T17:26:46.481Z,14.53
2023-04-16T17:29:23.596Z,15.40
2023-04-16T17:31:57.833Z,13.80
2023-04-16T17:34:31.879Z,14.63
2023-04-16T17:37:05.658Z,16.10
2023-04-16T17:39:39.609Z,17.53
2023-04-16T17:42:12.884Z,18.43
2023-04-16T17:44:48.291Z,15.00
2023-04-16T17:47:22.757Z,16.90
2023-04-16T17:49:59.154Z,15.07
2023-04-16T17:52:33.062Z,16.30
2023-04-16T17:55:07.974Z,17.67
2023-04-16T17:57:42.634Z,17.70
2023-04-16T18:00:19.332Z,16.80
2023-04-16T18:02:53.140Z,20.17
2023-04-16T18:05:31.922Z,18.10
2023-04-16T18:08:06.308Z,16.73
2023-04-16T18:10:41.873Z,21.13
2023-04-16T18:13:17.907Z,17.30
2023-04-16T18:15:53.211Z,16.63
2023-04-16T18:18:26.947Z,18.00
2023-04-16T18:21:00.956Z,17.70
2023-04-16T18:23:34.748Z,15.60
2023-04-16T18:26:09.369Z,17.20
2023-04-16T18:28:44.491Z,19.67
2023-04-16T18:31:21.110Z,19.63
2023-04-16T18:33:57.898Z,16.13
2023-04-16T18:36:32.910Z,17.33
2023-04-16T18:39:08.432Z,16.70
2023-04-16T18:41:42.654Z,18.30
2023-04-16T18:44:17.715Z,18.07
2023-04-16T18:46:51.608Z,19.53
2023-04-16T18:49:27.427Z,18.10
2023-04-16T18:52:02.160Z,17.60
2023-04-16T18:54:36.790Z,18.53
2023-04-16T18:57:09.984Z,20.30
2023-04-16T18:59:46.046Z,18.37
2023-04-16T19:02:19.797Z,18.87
2023-04-16T19:04:54.064Z,17.23
2023-04-16T19:07:28.150Z,18.07
2023-04-16T19:10:02.907Z,20.30
2023-04-16T19:12:36.910Z,19.90
2023-04-16T19:15:12.633Z,22.03
2023-04-16T19:17:46.838Z,19.47
2023-04-16T19:20:21.251Z,22.47
2023-04-16T19:22:55.490Z,23.73
2023-04-16T19:25:29.473Z,18.87
2023-04-16T19:28:03.229Z,18.13
2023-04-16T19:30:37.292Z,19.77
2023-04-16T19:33:11.522Z,19.00
2023-04-16T19:35:47.615Z,21.27
2023-04-16T19:38:21.305Z,21.87
2023-04-16T19:40:55.728Z,20.65
2023-04-16T19:43:30.886Z,19.97
2023-04-16T19:46:05.020Z,22.33
2023-04-16T19:48:38.999Z,22.87
2023-04-16T19:51:13.194Z,23.13
2023-04-16T19:53:46.872Z,19.30
2023-04-16T19:56:20.020Z,18.77
2023-04-16T19:58:53.215Z,21.80
2023-04-16T20:01:26.581Z,20.50
2023-04-16T20:04:00.404Z,22.33
2023-04-16T20:06:34.447Z,19.57
2023-04-16T20:09:07.996Z,18.77
2023-04-16T20:11:41.405Z,24.67
2023-04-16T20:14:14.976Z,18.27
2023-04-16T20:16:49.294Z,19.47
2023-04-16T20:19:26.683Z,21.20
2023-04-16T20:22:00.454Z,22.73
2023-04-16T20:24:35.537Z,22.27
2023-04-16T20:27:09.389Z,21.90
2023-04-16T20:29:43.548Z,22.17
2023-04-16T20:32:17.126Z,20.97
2023-04-16T20:34:51.348Z,19.60
2023-04-16T20:37:25.207Z,23.77
2023-04-16T20:39:59.227Z,19.85
2023-04-16T20:42:33.482Z,23.27
2023-04-16T20:45:08.847Z,19.03
2023-04-16T20:47:43.532Z,29.43
2023-04-16T20:50:18.761Z,23.70
2023-04-16T20:52:52.940Z,23.80
2023-04-16T20:55:27.528Z,25.10
2023-04-16T20:58:01.322Z,22.73
2023-04-16T21:00:34.926Z,23.33
2023-04-16T21:03:09.303Z,21.17
2023-04-16T21:05:43.561Z,20.25
2023-04-16T21:08:17.888Z,24.00
2023-04-16T21:10:52.248Z,23.17
2023-04-16T21:13:26.000Z,22.83
2023-04-16T21:16:00.072Z,21.00
2023-04-16T21:18:35.048Z,20.40
2023-04-16T21:21:09.924Z,21.13
2023-04-16T21:23:43.878Z,19.37
2023-04-16T21:26:16.925Z,21.50
2023-04-16T21:28:51.586Z,22.57
2023-04-16T21:31:25.960Z,19.70
2023-04-16T21:33:59.993Z,19.33
2023-04-16T21:36:34.349Z,19.53
2023-04-16T21:39:07.900Z,26.17
2023-04-16T21:41:41.375Z,20.00
2023-04-16T21:44:15.811Z,24.20
2023-04-16T21:46:50.035Z,20.70
2023-04-16T21:49:23.975Z,18.43
2023-04-16T21:51:59.399Z,21.40
2023-04-16T21:54:33.029Z,22.07
2023-04-16T21:57:06.817Z,20.33
2023-04-16T21:59:41.852Z,22.53
2023-04-16T22:02:15.589Z,22.70
2023-04-16T22:04:49.497Z,22.03
2023-04-16T22:07:22.898Z,24.17
2023-04-16T22:09:56.932Z,19.90
2023-04-16T22:12:30.936Z,21.27
2023-04-16T22:15:05.547Z,22.70
2023-04-16T22:17:39.836Z,22.00
2023-04-16T22:20:14.874Z,22.70
2023-04-16T22:22:48.548Z,20.40
2023-04-16T22:25:22.250Z,22.33
2023-04-16T22:27:55.987Z,21.03
2023-04-16T22:30:29.984Z,23.43
2023-04-16T22:33:03.954Z,25.60
2023-04-16T22:35:37.294Z,22.67
2023-04-16T22:38:10.963Z,18.27
2023-04-16T22:40:44.831Z,20.80
2023-04-16T22:43:19.188Z,21.63
2023-04-16T22:46:02.638Z,23.40
2023-04-16T22:48:38.872Z,26.87
2023-04-16T22:51:12.890Z,21.03
2023-04-16T22:53:46.686Z,24.50
2023-04-16T22:56:21.535Z,22.57
2023-04-16T22:58:55.384Z,23.73
2023-04-16T23:01:29.177Z,28.03
2023-04-16T23:04:03.769Z,25.57
2023-04-16T23:06:37.218Z,22.60
2023-04-16T23:09:11.933Z,19.83
2023-04-16T23:11:46.189Z,19.90
2023-04-16T23:14:21.436Z,27.13
2023-04-16T23:16:55.136Z,22.17
2023-04-16T23:19:29.246Z,26.80
2023-04-16T23:22:03.044Z,22.27
2023-04-16T23:24:37.056Z,21.33
2023-04-16T23:27:11.062Z,20.90
2023-04-16T23:29:45.100Z,23.77
2023-04-16T23:32:19.442Z,23.83
2023-04-16T23:34:53.091Z,21.93
2023-04-16T23:37:27.100Z,21.70
2023-04-16T23:40:01.166Z,20.97
2023-04-16T23:42:35.126Z,22.03
2023-04-16T23:45:11.813Z,26.25
2023-04-16T23:47:46.029Z,23.13
2023-04-16T23:50:20.019Z,22.63
2023-04-16T23:52:54.840Z,19.23
2023-04-16T23:55:29.869Z,20.87
2023-04-16T23:58:04.293Z,21.13
